createdAt,value
2017-05-09T00:01:01.378Z,2.48
2017-05-09T00:03:36.549Z,3.10
2017-05-09T00:06:14.710Z,2.42
2017-05-09T00:11:49.129Z,2.52
2017-05-09T00:14:17.579Z,2.73
2017-05-09T00:16:45.918Z,2.87
2017-05-09T00:19:14.359Z,3.02
2017-05-09T00:21:43.478Z,2.67
2017-05-09T00:24:12.684Z,2.63
2017-05-09T00:29:19.048Z,3.00
2017-05-09T00:31:47.566Z,2.70
2017-05-09T00:34:15.954Z,2.98
2017-05-09T00:36:44.400Z,3.43
2017-05-09T00:39:15.639Z,2.50
2017-05-09T00:41:44.339Z,2.78
2017-05-09T00:44:14.022Z,2.75
2017-05-09T00:46:43.271Z,3.08
2017-05-09T00:49:11.677Z,2.48
2017-05-09T00:51:40.132Z,2.52
2017-05-09T00:54:08.534Z,3.27
2017-05-09T00:56:36.896Z,2.52
2017-05-09T00:59:05.228Z,3.15
2017-05-09T01:01:33.565Z,3.15
2017-05-09T01:04:01.961Z,2.50
2017-05-09T01:06:31.165Z,2.28
2017-05-09T01:09:00.261Z,2.30
2017-05-09T01:11:28.622Z,2.18
2017-05-09T01:13:56.983Z,2.43
2017-05-09T01:16:25.333Z,2.77
2017-05-09T01:18:53.857Z,2.93
2017-05-09T01:21:22.734Z,3.73
2017-05-09T01:23:51.132Z,2.68
2017-05-09T01:26:19.503Z,2.20
2017-05-09T01:28:47.868Z,2.32
2017-05-09T01:31:16.202Z,3.25
2017-05-09T01:33:44.521Z,2.85
2017-05-09T01:36:12.846Z,2.05
2017-05-09T01:38:42.041Z,2.52
2017-05-09T01:41:11.106Z,2.45
2017-05-09T01:43:39.446Z,2.47
2017-05-09T01:46:07.732Z,2.70
2017-05-09T01:48:36.134Z,2.63
2017-05-09T01:51:04.454Z,3.15
2017-05-09T01:53:32.817Z,2.88
2017-05-09T01:56:01.234Z,2.27
2017-05-09T01:58:29.607Z,1.97
2017-05-09T02:00:57.944Z,2.80
2017-05-09T02:03:27.040Z,2.70
2017-05-09T02:05:56.134Z,2.72
2017-05-09T02:08:25.223Z,2.48
2017-05-09T02:10:53.549Z,3.08
2017-05-09T02:13:21.855Z,2.87
2017-05-09T02:15:50.206Z,2.78
2017-05-09T02:18:18.676Z,2.33
2017-05-09T02:20:46.996Z,3.50
2017-05-09T02:23:15.550Z,2.03
2017-05-09T02:25:43.904Z,2.53
2017-05-09T02:28:12.234Z,2.33
2017-05-09T02:30:40.679Z,2.82
2017-05-09T02:33:09.789Z,2.95
2017-05-09T02:35:38.106Z,2.43
2017-05-09T02:38:06.480Z,2.57
2017-05-09T02:40:34.855Z,3.00
2017-05-09T02:43:03.189Z,2.57
2017-05-09T02:45:31.528Z,3.15
2017-05-09T02:48:00.741Z,2.32
2017-05-09T02:50:30.154Z,2.23
2017-05-09T02:52:58.540Z,3.30
2017-05-09T02:55:26.933Z,2.45
2017-05-09T02:57:55.390Z,3.60
2017-05-09T03:00:23.726Z,3.05
2017-05-09T03:02:52.025Z,2.78
2017-05-09T03:05:22.428Z,3.07
2017-05-09T03:07:50.805Z,2.48
2017-05-09T03:10:20.666Z,2.87
2017-05-09T03:12:49.085Z,2.25
2017-05-09T03:15:17.491Z,2.75
2017-05-09T03:17:45.894Z,2.40
2017-05-09T03:20:14.354Z,3.08
2017-05-09T03:22:42.720Z,3.05
2017-05-09T03:25:11.045Z,2.95
2017-05-09T03:27:39.496Z,2.77
2017-05-09T03:30:08.629Z,2.42
2017-05-09T03:32:36.985Z,3.07
2017-05-09T03:35:05.423Z,3.18
2017-05-09T03:37:33.767Z,2.42
2017-05-09T03:40:02.095Z,3.08
2017-05-09T03:42:30.492Z,2.78
2017-05-09T03:44:59.584Z,2.93
2017-05-09T03:47:28.665Z,2.85
2017-05-09T03:49:57.013Z,2.45
2017-05-09T03:52:25.340Z,3.33
2017-05-09T03:54:54.383Z,2.87
2017-05-09T03:57:22.760Z,2.93
2017-05-09T03:59:51.073Z,2.90
2017-05-09T04:02:19.382Z,2.67
2017-05-09T04:04:47.803Z,3.13
2017-05-09T04:07:16.148Z,3.43
2017-05-09T04:09:44.466Z,3.48
2017-05-09T04:12:12.852Z,3.57
2017-05-09T04:14:41.191Z,3.62
2017-05-09T04:17:09.512Z,4.07
2017-05-09T04:19:37.949Z,3.08
2017-05-09T04:22:06.281Z,3.90
2017-05-09T04:24:34.634Z,3.20
2017-05-09T04:27:03.959Z,3.40
2017-05-09T04:29:33.217Z,3.03
2017-05-09T04:32:01.713Z,3.12
2017-05-09T04:34:30.087Z,3.93
2017-05-09T04:36:58.442Z,3.02
2017-05-09T04:39:26.899Z,3.25
2017-05-09T04:41:55.956Z,3.65
2017-05-09T04:44:24.380Z,3.00
2017-05-09T04:46:52.769Z,3.52
2017-05-09T04:49:21.111Z,3.73
2017-05-09T04:51:49.463Z,3.28
2017-05-09T04:54:17.834Z,3.62
2017-05-09T04:56:46.171Z,3.62
2017-05-09T04:59:14.558Z,3.43
2017-05-09T05:01:43.748Z,3.48
2017-05-09T05:04:12.129Z,3.50
2017-05-09T05:06:40.522Z,3.80
2017-05-09T05:09:08.892Z,2.72
2017-05-09T05:11:37.221Z,3.43
2017-05-09T05:14:05.682Z,3.37
2017-05-09T05:16:34.049Z,2.88
2017-05-09T05:19:02.434Z,1.82
2017-05-09T05:21:31.705Z,2.55
2017-05-09T05:24:00.132Z,3.00
2017-05-09T05:26:29.088Z,2.78
2017-05-09T05:28:57.654Z,3.03
2017-05-09T05:31:26.807Z,2.72
2017-05-09T05:33:55.169Z,3.38
2017-05-09T05:36:24.430Z,3.53
2017-05-09T05:38:53.553Z,3.47
2017-05-09T05:41:23.512Z,2.40
2017-05-09T05:43:55.102Z,5.17
2017-05-09T05:46:24.438Z,2.30
2017-05-09T05:48:53.518Z,3.37
2017-05-09T05:51:24.688Z,3.05
2017-05-09T05:53:53.115Z,2.82
2017-05-09T05:56:22.041Z,2.32
2017-05-09T05:58:51.345Z,2.37
2017-05-09T06:01:19.751Z,3.12
2017-05-09T06:03:49.367Z,3.42
2017-05-09T06:06:21.525Z,3.67
2017-05-09T06:09:08.390Z,2.53
2017-05-09T06:11:36.819Z,3.07
2017-05-09T06:14:06.065Z,2.85
2017-05-09T06:16:35.317Z,2.35
2017-05-09T06:19:03.757Z,1.40
2017-05-09T06:21:36.063Z,2.77
2017-05-09T06:24:04.481Z,3.72
2017-05-09T06:26:32.997Z,3.38
2017-05-09T06:29:01.400Z,2.30
2017-05-09T06:31:29.885Z,3.27
2017-05-09T06:33:58.289Z,3.57
2017-05-09T06:36:26.628Z,2.75
2017-05-09T06:38:59.779Z,2.98
2017-05-09T06:41:28.127Z,3.22
2017-05-09T06:43:56.470Z,3.72
2017-05-09T06:46:25.711Z,2.88
2017-05-09T06:48:54.288Z,3.50
2017-05-09T06:51:23.620Z,2.48
2017-05-09T06:53:51.960Z,2.53
2017-05-09T06:56:21.133Z,3.15
2017-05-09T06:58:50.258Z,2.42
2017-05-09T07:01:18.605Z,2.98
2017-05-09T07:03:47.723Z,2.52
2017-05-09T07:06:16.079Z,3.13
2017-05-09T07:08:44.397Z,4.27
2017-05-09T07:11:12.789Z,3.90
2017-05-09T07:13:41.858Z,1.97
2017-05-09T07:16:10.179Z,3.13
2017-05-09T07:18:39.097Z,2.92
2017-05-09T07:21:07.474Z,3.90
2017-05-09T07:23:35.844Z,3.28
2017-05-09T07:26:04.271Z,2.58
2017-05-09T07:28:34.405Z,2.05
2017-05-09T07:31:02.833Z,2.42
2017-05-09T07:33:32.210Z,2.25
2017-05-09T07:36:00.639Z,2.40
2017-05-09T07:38:29.563Z,2.27
2017-05-09T07:40:59.174Z,2.18
2017-05-09T07:43:27.683Z,1.70
2017-05-09T07:45:56.280Z,3.00
2017-05-09T07:48:25.377Z,4.57
2017-05-09T07:50:54.748Z,3.78
2017-05-09T07:53:23.134Z,2.88
2017-05-09T07:55:51.538Z,3.00
2017-05-09T07:58:19.956Z,3.13
2017-05-09T08:00:48.399Z,3.02
2017-05-09T08:03:16.807Z,2.85
2017-05-09T08:05:45.152Z,4.03
2017-05-09T08:08:14.658Z,3.03
2017-05-09T08:10:43.035Z,2.62
2017-05-09T08:13:12.264Z,2.30
2017-05-09T08:15:40.637Z,2.37
2017-05-09T08:18:09.204Z,2.93
2017-05-09T08:20:37.529Z,2.67
2017-05-09T08:23:05.915Z,2.12
2017-05-09T08:25:34.347Z,2.83
2017-05-09T08:28:02.731Z,2.47
2017-05-09T08:30:31.057Z,2.45
2017-05-09T08:32:59.951Z,2.28
2017-05-09T08:35:28.464Z,2.38
2017-05-09T08:37:57.688Z,3.12
2017-05-09T08:40:27.969Z,2.13
2017-05-09T08:42:57.398Z,2.15
2017-05-09T08:45:25.802Z,2.40
2017-05-09T08:47:54.912Z,1.60
2017-05-09T08:50:25.006Z,1.80
2017-05-09T08:52:53.381Z,1.80
2017-05-09T08:55:22.695Z,1.90
2017-05-09T08:57:51.906Z,2.25
2017-05-09T09:00:20.361Z,2.45
2017-05-09T09:02:49.496Z,2.55
2017-05-09T09:05:17.836Z,2.43
2017-05-09T09:07:47.037Z,2.37
2017-05-09T09:10:16.157Z,2.23
2017-05-09T09:12:44.601Z,2.20
2017-05-09T09:15:19.572Z,2.52
2017-05-09T09:17:48.315Z,1.98
2017-05-09T09:20:16.683Z,2.25
2017-05-09T09:22:46.476Z,2.18
2017-05-09T09:25:14.905Z,1.65
2017-05-09T09:27:43.291Z,2.27
2017-05-09T09:33:17.866Z,2.47
2017-05-09T09:35:48.304Z,1.78
2017-05-09T09:38:16.664Z,1.80
2017-05-09T09:40:45.599Z,2.02
2017-05-09T09:43:14.751Z,2.03
2017-05-09T09:45:43.416Z,2.18
2017-05-09T09:50:50.840Z,2.68
2017-05-09T09:53:19.608Z,2.58
2017-05-09T09:55:48.728Z,2.93
2017-05-09T09:58:19.749Z,2.75
2017-05-09T10:00:48.884Z,2.70
2017-05-09T10:03:17.552Z,2.10
2017-05-09T10:05:45.897Z,1.60
2017-05-09T10:08:14.310Z,2.20
2017-05-09T10:10:43.356Z,1.70
2017-05-09T10:13:11.824Z,2.22
2017-05-09T10:15:40.254Z,1.70
2017-05-09T10:18:10.456Z,2.05
2017-05-09T10:20:39.737Z,1.73
2017-05-09T10:23:08.457Z,2.13
2017-05-09T10:25:36.841Z,1.68
2017-05-09T10:28:05.261Z,1.82
2017-05-09T10:30:33.604Z,1.65
2017-05-09T10:33:01.990Z,1.07
2017-05-09T10:35:31.484Z,1.77
2017-05-09T10:37:59.886Z,1.03
2017-05-09T10:40:28.300Z,1.55
2017-05-09T10:42:56.722Z,1.05
2017-05-09T10:45:28.920Z,1.42
2017-05-09T10:47:57.339Z,1.50
2017-05-09T10:50:26.508Z,1.93
2017-05-09T10:52:54.954Z,1.87
2017-05-09T10:55:23.334Z,1.98
2017-05-09T10:57:51.729Z,1.53
2017-05-09T11:00:20.351Z,2.85
2017-05-09T11:02:48.899Z,2.32
2017-05-09T11:05:18.533Z,2.73
2017-05-09T11:07:46.900Z,1.33
2017-05-09T11:10:16.725Z,2.32
2017-05-09T11:12:46.013Z,3.52
2017-05-09T11:15:14.605Z,2.15
2017-05-09T11:17:43.098Z,1.90
2017-05-09T11:20:11.663Z,1.98
2017-05-09T11:25:17.698Z,2.25
2017-05-09T11:27:46.385Z,2.78
2017-05-09T11:30:14.999Z,1.98
2017-05-09T11:32:43.562Z,1.50
2017-05-09T11:35:11.992Z,2.30
2017-05-09T11:37:41.239Z,2.77
2017-05-09T11:40:09.696Z,3.02
2017-05-09T11:42:38.884Z,2.38
2017-05-09T11:45:08.642Z,2.30
2017-05-09T11:47:37.090Z,2.73
2017-05-09T11:50:06.065Z,2.22
2017-05-09T11:52:36.682Z,2.23
2017-05-09T11:55:07.078Z,2.18
2017-05-09T11:57:36.355Z,1.98
2017-05-09T12:00:04.775Z,1.52
2017-05-09T12:02:33.491Z,1.42
2017-05-09T12:05:01.947Z,2.13
2017-05-09T12:07:30.698Z,1.95
2017-05-09T12:09:59.695Z,1.57
2017-05-09T12:12:28.182Z,1.72
2017-05-09T12:14:56.646Z,1.52
2017-05-09T12:17:25.076Z,1.77
2017-05-09T12:19:54.537Z,1.28
2017-05-09T12:22:22.908Z,1.47
2017-05-09T12:24:51.381Z,1.30
2017-05-09T12:27:19.737Z,1.65
2017-05-09T12:29:48.849Z,1.30
2017-05-09T12:32:17.925Z,1.58
2017-05-09T12:34:46.872Z,1.33
2017-05-09T12:37:17.216Z,1.30
2017-05-09T12:39:46.520Z,1.18
2017-05-09T12:42:15.631Z,1.57
2017-05-09T12:44:45.085Z,2.43
2017-05-09T12:47:14.314Z,2.03
2017-05-09T12:49:42.882Z,1.92
2017-05-09T12:52:12.957Z,1.62
2017-05-09T12:54:44.692Z,1.50
2017-05-09T12:57:15.748Z,1.80
2017-05-09T12:59:44.152Z,1.33
2017-05-09T13:02:14.901Z,1.90
2017-05-09T13:04:43.404Z,1.85
2017-05-09T13:07:11.872Z,2.48
2017-05-09T13:09:42.062Z,3.15
2017-05-09T13:12:12.234Z,2.73
2017-05-09T13:14:41.647Z,2.13
2017-05-09T13:17:09.994Z,2.15
2017-05-09T13:19:38.335Z,2.15
2017-05-09T13:22:06.695Z,2.58
2017-05-09T13:24:35.847Z,2.15
2017-05-09T13:27:04.345Z,1.70
2017-05-09T13:29:34.481Z,2.43
2017-05-09T13:32:03.011Z,2.43
2017-05-09T13:34:31.333Z,2.25
2017-05-09T13:37:00.643Z,2.10
2017-05-09T13:39:29.718Z,2.43
2017-05-09T13:41:58.264Z,2.15
2017-05-09T13:44:27.273Z,2.07
2017-05-09T13:46:55.624Z,2.87
2017-05-09T13:49:24.001Z,2.50
2017-05-09T13:51:53.394Z,2.08
2017-05-09T13:54:21.793Z,2.12
2017-05-09T13:56:51.097Z,2.17
2017-05-09T13:59:19.493Z,2.35
2017-05-09T14:01:48.550Z,3.02
2017-05-09T14:04:16.986Z,1.88
2017-05-09T14:06:48.040Z,1.77
2017-05-09T14:09:16.448Z,2.40
2017-05-09T14:11:45.554Z,2.67
2017-05-09T14:14:13.934Z,2.98
2017-05-09T14:16:42.538Z,1.50
2017-05-09T14:19:13.468Z,2.73
2017-05-09T14:21:41.945Z,2.53
2017-05-09T14:24:10.387Z,1.90
2017-05-09T14:26:39.521Z,2.33
2017-05-09T14:29:08.699Z,3.00
2017-05-09T14:31:38.386Z,2.65
2017-05-09T14:34:06.843Z,3.30
2017-05-09T14:36:35.599Z,1.85
2017-05-09T14:39:04.067Z,2.25
2017-05-09T14:41:32.551Z,1.97
2017-05-09T14:44:01.027Z,1.80
2017-05-09T14:46:29.560Z,2.17
2017-05-09T14:48:58.282Z,2.38
2017-05-09T14:51:28.939Z,2.20
2017-05-09T14:53:57.371Z,2.02
2017-05-09T14:56:25.785Z,2.48
2017-05-09T14:58:55.040Z,2.43
2017-05-09T15:01:24.678Z,4.08
2017-05-09T15:03:53.205Z,2.85
2017-05-09T15:06:21.706Z,2.45
2017-05-09T15:08:50.057Z,3.80
2017-05-09T15:11:18.556Z,1.67
2017-05-09T15:13:46.912Z,2.52
2017-05-09T15:16:15.931Z,2.40
2017-05-09T15:18:45.351Z,2.00
2017-05-09T15:21:15.029Z,1.67
2017-05-09T15:23:43.502Z,2.00
2017-05-09T15:28:47.572Z,3.13
2017-05-09T15:31:16.151Z,2.32
2017-05-09T15:33:44.712Z,2.45
2017-05-09T15:36:13.164Z,2.10
2017-05-09T15:38:41.620Z,2.28
2017-05-09T15:41:10.772Z,1.82
2017-05-09T15:43:39.192Z,2.08
2017-05-09T15:46:07.623Z,3.02
2017-05-09T15:48:36.037Z,2.50
2017-05-09T15:51:04.425Z,2.12
2017-05-09T15:53:32.799Z,1.78
2017-05-09T15:56:02.063Z,1.57
2017-05-09T15:58:30.372Z,2.07
2017-05-09T16:00:59.448Z,2.05
2017-05-09T16:03:27.818Z,1.75
2017-05-09T16:05:56.530Z,2.37
2017-05-09T16:08:24.888Z,2.32
2017-05-09T16:10:53.241Z,1.92
2017-05-09T16:13:28.435Z,1.73
2017-05-09T16:16:31.101Z,2.75
2017-05-09T16:18:59.476Z,2.38
2017-05-09T16:21:30.696Z,2.67
2017-05-09T16:24:02.286Z,3.00
2017-05-09T16:26:30.647Z,2.22
2017-05-09T16:28:59.749Z,2.23
2017-05-09T16:31:28.913Z,2.52
2017-05-09T16:33:57.234Z,2.32
2017-05-09T16:36:30.173Z,2.52
2017-05-09T16:39:06.727Z,2.33
2017-05-09T16:41:35.940Z,2.40
2017-05-09T16:44:04.374Z,2.47
2017-05-09T16:46:34.810Z,2.22
2017-05-09T16:49:04.198Z,2.43
2017-05-09T16:51:33.384Z,2.25
2017-05-09T16:54:01.926Z,2.53
2017-05-09T16:56:30.361Z,3.22
2017-05-09T16:59:00.315Z,2.77
2017-05-09T17:01:28.765Z,2.07
2017-05-09T17:06:36.371Z,2.55
2017-05-09T17:09:05.514Z,2.50
2017-05-09T17:11:34.026Z,3.02
2017-05-09T17:14:02.507Z,2.95
2017-05-09T17:16:31.508Z,2.85
2017-05-09T17:19:00.585Z,2.12
2017-05-09T17:21:28.980Z,2.35
2017-05-09T17:24:01.571Z,2.83
2017-05-09T17:26:30.931Z,2.33
2017-05-09T17:29:00.287Z,2.53
2017-05-09T17:31:29.560Z,2.53
2017-05-09T17:33:58.029Z,1.85
2017-05-09T17:36:33.244Z,2.28
2017-05-09T17:39:01.618Z,3.07
2017-05-09T17:41:29.998Z,2.77
2017-05-09T17:43:58.334Z,2.23
2017-05-09T17:46:27.578Z,2.93
2017-05-09T17:48:56.350Z,2.57
2017-05-09T17:51:24.771Z,2.50
2017-05-09T17:53:53.245Z,1.70
2017-05-09T17:56:21.587Z,2.20
2017-05-09T17:58:50.062Z,2.30
2017-05-09T18:01:18.600Z,2.80
2017-05-09T18:03:46.992Z,2.20
2017-05-09T18:06:19.243Z,1.90
2017-05-09T18:08:55.529Z,2.55
2017-05-09T18:14:39.887Z,2.47
2017-05-09T18:17:10.156Z,2.90
2017-05-09T18:19:41.283Z,3.45
2017-05-09T18:22:27.507Z,2.50
2017-05-09T18:24:57.971Z,3.40
2017-05-09T18:30:14.994Z,2.90
2017-05-09T18:32:51.336Z,3.28
2017-05-09T18:35:38.686Z,3.62
2017-05-09T18:38:17.819Z,3.27
2017-05-09T18:40:58.286Z,2.50
2017-05-09T18:43:41.784Z,3.83
2017-05-09T18:46:21.443Z,2.53
2017-05-09T18:48:59.654Z,2.53
2017-05-09T18:51:29.258Z,2.68
2017-05-09T18:54:00.453Z,3.43
2017-05-09T18:56:29.873Z,4.03
2017-05-09T18:59:00.121Z,3.72
2017-05-09T19:01:33.664Z,3.15
2017-05-09T19:04:04.126Z,3.07
2017-05-09T19:06:38.165Z,2.98
2017-05-09T19:09:06.824Z,3.58
2017-05-09T19:11:37.295Z,3.38
2017-05-09T19:14:08.992Z,4.40
2017-05-09T19:16:41.575Z,3.02
2017-05-09T19:22:20.986Z,3.07
2017-05-09T19:24:51.171Z,3.53
2017-05-09T19:27:22.456Z,3.68
2017-05-09T19:32:35.450Z,3.18
2017-05-09T19:35:11.348Z,3.38
2017-05-09T19:37:55.316Z,3.90
2017-05-09T19:40:44.243Z,3.63
2017-05-09T19:49:02.533Z,4.23
2017-05-09T19:51:33.003Z,3.28
2017-05-09T19:54:02.387Z,3.95
2017-05-09T19:59:47.595Z,3.85
2017-05-09T20:02:18.382Z,4.22
2017-05-09T20:04:52.786Z,4.77
2017-05-09T20:07:21.328Z,4.90
2017-05-09T20:09:49.838Z,5.48
2017-05-09T20:15:13.507Z,5.33
2017-05-09T20:17:43.002Z,4.15
2017-05-09T20:20:23.648Z,4.53
2017-05-09T20:22:52.412Z,4.22
2017-05-09T20:25:21.069Z,4.43
2017-05-09T20:27:58.595Z,4.07
2017-05-09T20:30:27.091Z,1.77
2017-05-09T20:32:55.599Z,4.13
2017-05-09T20:35:24.947Z,3.65
2017-05-09T20:37:53.370Z,4.57
2017-05-09T20:40:21.797Z,4.63
2017-05-09T20:42:50.449Z,4.02
2017-05-09T20:45:19.089Z,4.57
2017-05-09T20:47:47.469Z,5.32
2017-05-09T20:50:16.750Z,5.00
2017-05-09T20:52:45.807Z,4.75
2017-05-09T20:55:14.735Z,4.53
2017-05-09T20:57:43.169Z,3.57
2017-05-09T21:00:11.625Z,5.12
2017-05-09T21:02:40.089Z,4.78
2017-05-09T21:05:08.762Z,4.77
2017-05-09T21:07:37.838Z,3.60
2017-05-09T21:10:06.385Z,4.50
2017-05-09T21:12:35.672Z,4.05
2017-05-09T21:15:04.980Z,3.77
2017-05-09T21:17:33.484Z,1.77
2017-05-09T21:20:02.172Z,4.23
2017-05-09T21:22:30.784Z,5.60
2017-05-09T21:24:59.233Z,5.07
2017-05-09T21:27:27.654Z,4.77
2017-05-09T21:29:56.742Z,5.47
2017-05-09T21:32:25.261Z,4.28
2017-05-09T21:34:53.975Z,4.62
2017-05-09T21:37:27.206Z,4.90
2017-05-09T21:39:57.547Z,4.08
2017-05-09T21:42:31.470Z,4.45
2017-05-09T21:45:00.284Z,4.45
2017-05-09T21:47:37.647Z,3.47
2017-05-09T21:50:07.685Z,4.87
2017-05-09T21:52:40.478Z,3.68
2017-05-09T21:55:10.423Z,5.05
2017-05-09T21:57:48.199Z,3.05
2017-05-09T22:00:18.092Z,5.35
2017-05-09T22:02:47.457Z,4.93
2017-05-09T22:05:15.905Z,4.03
2017-05-09T22:07:48.946Z,3.83
2017-05-09T22:10:19.397Z,5.13
2017-05-09T22:12:49.590Z,3.18
2017-05-09T22:15:17.979Z,4.68
2017-05-09T22:18:23.193Z,4.20
2017-05-09T22:21:04.145Z,5.97
2017-05-09T22:23:34.718Z,5.85
2017-05-09T22:26:04.191Z,6.12
2017-05-09T22:28:37.846Z,6.35
2017-05-09T22:31:06.340Z,5.27
2017-05-09T22:33:34.700Z,5.73
2017-05-09T22:36:04.786Z,5.52
2017-05-09T22:38:33.307Z,5.63
2017-05-09T22:41:10.769Z,4.52
2017-05-09T22:46:52.222Z,4.88
2017-05-09T22:49:20.622Z,5.38
2017-05-09T22:51:49.017Z,4.60
2017-05-09T22:54:17.612Z,5.20
2017-05-09T22:59:21.229Z,3.75
2017-05-09T23:01:49.839Z,4.93
2017-05-09T23:04:20.116Z,5.88
2017-05-09T23:06:48.541Z,5.08
2017-05-09T23:09:18.272Z,5.83
2017-05-09T23:11:46.785Z,4.27
2017-05-09T23:14:15.286Z,4.35
2017-05-09T23:16:45.095Z,4.92
2017-05-09T23:19:13.438Z,4.30
2017-05-09T23:21:41.858Z,4.63
2017-05-09T23:24:10.246Z,4.53
2017-05-09T23:26:38.620Z,4.63
2017-05-09T23:29:07.997Z,3.93
2017-05-09T23:34:19.511Z,4.52
2017-05-09T23:36:47.988Z,4.55
2017-05-09T23:39:16.648Z,5.03
2017-05-09T23:42:06.286Z,3.90
2017-05-09T23:44:35.331Z,4.85
2017-05-09T23:47:05.206Z,5.88
2017-05-09T23:49:39.184Z,4.00
2017-05-09T23:52:09.366Z,4.78
2017-05-09T23:54:37.846Z,5.40
2017-05-09T23:57:06.915Z,4.20
2017-05-09T23:59:36.941Z,3.02
